TimeAKST,TemperatureF,Dew PointF,Humidity,Sea Level PressureIn,VisibilityMPH,Wind Direction,Wind SpeedMPH,Gust SpeedMPH,PrecipitationIn,Events,Conditions,WindDirDegrees,DateUTC
12:16 AM,24.8,21.2,86,29.94,10.0,NE,6.9,-,N/A,,Overcast,50,2013-01-11 09:16:00
12:36 AM,24.8,21.2,86,29.94,10.0,NE,8.1,-,N/A,,Overcast,40,2013-01-11 09:36:00
12:56 AM,24.8,23.0,93,29.93,10.0,ENE,5.8,-,N/A,,Overcast,60,2013-01-11 09:56:00
1:16 AM,24.8,21.2,86,29.92,10.0,ENE,3.5,-,N/A,,Overcast,60,2013-01-11 10:16:00
1:36 AM,24.8,21.2,86,29.92,10.0,NE,3.5,-,N/A,,Overcast,40,2013-01-11 10:36:00
1:56 AM,24.8,23.0,93,29.91,10.0,NE,4.6,-,N/A,,Overcast,50,2013-01-11 10:56:00
2:16 AM,24.8,21.2,86,29.91,10.0,Calm,Calm,-,N/A,,Overcast,0,2013-01-11 11:16:00
2:36 AM,24.8,21.2,86,29.92,10.0,Calm,Calm,-,N/A,,Overcast,0,2013-01-11 11:36:00
2:56 AM,24.8,23.0,93,29.92,10.0,Calm,Calm,-,N/A,,Overcast,0,2013-01-11 11:56:00
3:16 AM,24.8,23.0,93,29.92,10.0,North,3.5,-,N/A,,Overcast,350,2013-01-11 12:16:00
3:36 AM,24.8,23.0,93,29.91,10.0,Calm,Calm,-,N/A,,Mostly Cloudy,0,2013-01-11 12:36:00
3:56 AM,24.8,24.8,100,29.91,10.0,North,3.5,-,N/A,,Overcast,10,2013-01-11 12:56:00
4:16 AM,26.6,24.8,93,29.91,10.0,NNE,3.5,-,N/A,,Overcast,30,2013-01-11 13:16:00
4:36 AM,26.6,23.0,86,29.91,10.0,Calm,Calm,-,N/A,,Overcast,0,2013-01-11 13:36:00
4:56 AM,26.6,24.8,93,29.91,10.0,NNE,5.8,-,N/A,,Overcast,20,2013-01-11 13:56:00
5:16 AM,26.6,24.8,93,29.89,10.0,NE,5.8,-,N/A,,Mostly Cloudy,50,2013-01-11 14:16:00
5:36 AM,26.6,24.8,93,29.88,10.0,ENE,3.5,-,N/A,,Overcast,70,2013-01-11 14:36:00
5:56 AM,26.6,24.8,93,29.88,10.0,NNE,4.6,-,N/A,,Overcast,30,2013-01-11 14:56:00
6:16 AM,26.6,24.8,93,29.88,10.0,NE,5.8,-,N/A,,Overcast,40,2013-01-11 15:16:00
6:36 AM,26.6,24.8,93,29.88,10.0,ENE,5.8,-,N/A,,Overcast,60,2013-01-11 15:36:00
6:56 AM,26.6,24.8,93,29.88,10.0,NE,9.2,-,N/A,,Overcast,50,2013-01-11 15:56:00
7:16 AM,26.6,24.8,93,29.89,10.0,ENE,8.1,-,N/A,,Overcast,60,2013-01-11 16:16:00
7:36 AM,26.6,24.8,93,29.90,10.0,ENE,5.8,-,N/A,,Overcast,70,2013-01-11 16:36:00
7:56 AM,26.6,24.8,93,29.91,10.0,NNE,4.6,-,N/A,,Overcast,30,2013-01-11 16:56:00
8:16 AM,26.6,24.8,93,29.93,10.0,NNW,4.6,-,N/A,,Overcast,330,2013-01-11 17:16:00
8:36 AM,26.6,23.0,86,29.93,5.0,Calm,Calm,-,N/A,,Scattered Clouds,0,2013-01-11 17:36:00
8:56 AM,26.6,24.8,93,29.94,6.0,Calm,Calm,-,N/A,,Clear,0,2013-01-11 17:56:00
9:16 AM,26.6,24.8,93,29.95,10.0,ENE,4.6,-,N/A,,Mostly Cloudy,70,2013-01-11 18:16:00
9:36 AM,26.6,24.8,93,29.95,10.0,East,4.6,-,N/A,,Overcast,80,2013-01-11 18:36:00
9:56 AM,26.6,24.8,93,29.96,5.0,NE,3.5,-,N/A,,Scattered Clouds,50,2013-01-11 18:56:00
10:16 AM,26.6,24.8,93,29.98,3.0,North,3.5,-,N/A,,Partly Cloudy,10,2013-01-11 19:16:00
10:36 AM,26.6,24.8,93,29.99,1.5,Calm,Calm,-,N/A,,Overcast,0,2013-01-11 19:36:00
10:56 AM,26.6,24.8,93,30.00,1.8,Calm,Calm,-,N/A,,Overcast,0,2013-01-11 19:56:00
11:16 AM,26.6,24.8,93,30.02,1.8,Calm,Calm,-,N/A,,Overcast,0,2013-01-11 20:16:00
11:36 AM,26.6,24.8,93,30.02,1.0,Calm,Calm,-,N/A,,Mostly Cloudy,0,2013-01-11 20:36:00
11:56 AM,26.6,24.8,93,30.03,1.5,Calm,Calm,-,N/A,,Overcast,0,2013-01-11 20:56:00
12:16 PM,26.6,24.8,93,30.04,1.5,Calm,Calm,-,N/A,,Overcast,0,2013-01-11 21:16:00
12:36 PM,26.6,24.8,93,30.04,1.8,Calm,Calm,-,0.01,,Overcast,0,2013-01-11 21:36:00
12:56 PM,26.6,24.8,93,30.04,3.0,Calm,Calm,-,0.01,,Overcast,0,2013-01-11 21:56:00
1:16 PM,26.6,24.8,93,30.05,3.0,Calm,Calm,-,N/A,,Overcast,0,2013-01-11 22:16:00
1:36 PM,26.6,24.8,93,30.05,2.0,Calm,Calm,-,N/A,,Overcast,0,2013-01-11 22:36:00
1:56 PM,26.6,24.8,93,30.06,2.5,Calm,Calm,-,N/A,,Overcast,0,2013-01-11 22:56:00
2:16 PM,26.6,24.8,93,30.07,10.0,Calm,Calm,-,N/A,,Overcast,0,2013-01-11 23:16:00
2:36 PM,28.4,26.6,93,30.07,5.0,Calm,Calm,-,N/A,,Overcast,0,2013-01-11 23:36:00
2:56 PM,28.4,26.6,93,30.08,1.2,Calm,Calm,-,N/A,,Overcast,0,2013-01-11 23:56:00
3:16 PM,28.4,26.6,93,30.08,1.8,Calm,Calm,-,N/A,,Overcast,0,2013-01-12 00:16:00
3:36 PM,28.4,26.6,93,30.08,8.0,Calm,Calm,-,N/A,,Mostly Cloudy,0,2013-01-12 00:36:00
3:56 PM,26.6,26.6,100,30.08,10.0,Calm,Calm,-,N/A,,Overcast,0,2013-01-12 00:56:00
4:16 PM,26.6,26.6,100,30.09,9.0,Calm,Calm,-,N/A,,Overcast,0,2013-01-12 01:16:00
4:36 PM,26.6,24.8,93,30.08,10.0,Calm,Calm,-,N/A,,Overcast,0,2013-01-12 01:36:00
4:56 PM,26.6,24.8,93,30.09,8.0,Calm,Calm,-,N/A,,Overcast,0,2013-01-12 01:56:00
5:16 PM,26.6,24.8,93,30.09,8.0,Calm,Calm,-,N/A,,Overcast,0,2013-01-12 02:16:00
5:36 PM,26.6,24.8,93,30.10,10.0,Calm,Calm,-,N/A,,Overcast,0,2013-01-12 02:36:00
5:56 PM,26.6,24.8,93,30.11,10.0,Calm,Calm,-,N/A,,Overcast,0,2013-01-12 02:56:00
6:16 PM,26.6,24.8,93,30.11,10.0,Calm,Calm,-,N/A,,Overcast,0,2013-01-12 03:16:00
6:36 PM,26.6,24.8,93,30.11,10.0,Calm,Calm,-,N/A,,Overcast,0,2013-01-12 03:36:00
6:56 PM,26.6,24.8,93,30.11,10.0,Calm,Calm,-,N/A,,Overcast,0,2013-01-12 03:56:00
7:16 PM,26.6,24.8,93,30.11,10.0,Calm,Calm,-,N/A,,Overcast,0,2013-01-12 04:16:00
7:36 PM,26.6,24.8,93,30.12,10.0,Calm,Calm,-,N/A,,Overcast,0,2013-01-12 04:36:00
7:56 PM,26.6,24.8,93,30.11,10.0,Calm,Calm,-,N/A,,Overcast,0,2013-01-12 04:56:00
8:16 PM,26.6,24.8,93,30.12,10.0,Calm,Calm,-,N/A,,Overcast,0,2013-01-12 05:16:00
8:36 PM,24.8,24.8,100,30.12,10.0,Calm,Calm,-,N/A,,Overcast,0,2013-01-12 05:36:00
8:56 PM,24.8,24.8,100,30.12,10.0,Calm,Calm,-,N/A,,Overcast,0,2013-01-12 05:56:00
9:16 PM,24.8,23.0,93,30.12,10.0,Calm,Calm,-,N/A,,Overcast,0,2013-01-12 06:16:00
9:36 PM,24.8,23.0,93,30.12,10.0,Calm,Calm,-,N/A,,Overcast,0,2013-01-12 06:36:00
9:56 PM,24.8,23.0,93,30.13,10.0,Calm,Calm,-,N/A,,Overcast,0,2013-01-12 06:56:00
10:16 PM,24.8,23.0,93,30.12,10.0,Calm,Calm,-,N/A,,Mostly Cloudy,0,2013-01-12 07:16:00
10:36 PM,24.8,21.2,86,30.12,10.0,Calm,Calm,-,N/A,,Overcast,0,2013-01-12 07:36:00
10:56 PM,23.0,21.2,93,30.11,10.0,Calm,Calm,-,N/A,,Overcast,0,2013-01-12 07:56:00
11:16 PM,23.0,21.2,93,30.10,10.0,Calm,Calm,-,N/A,,Overcast,0,2013-01-12 08:16:00
11:36 PM,24.8,21.2,86,30.10,10.0,Calm,Calm,-,N/A,,Overcast,0,2013-01-12 08:36:00
11:56 PM,21.2,19.4,93,30.09,10.0,Calm,Calm,-,N/A,,Overcast,0,2013-01-12 08:56:00